createdAt,value
2018-08-09T00:01:07.827Z,24.35
2018-08-09T00:03:36.091Z,24.30
2018-08-09T00:06:04.285Z,24.26
2018-08-09T00:08:32.770Z,24.24
2018-08-09T00:11:01.532Z,24.19
2018-08-09T00:13:29.707Z,24.27
2018-08-09T00:15:58.297Z,24.38
2018-08-09T00:20:58.723Z,24.21
2018-08-09T00:23:26.938Z,24.18
2018-08-09T00:25:55.166Z,24.16
2018-08-09T00:28:23.384Z,24.12
2018-08-09T00:30:51.563Z,24.01
2018-08-09T00:33:20.309Z,23.97
2018-08-09T00:35:48.500Z,23.97
2018-08-09T00:38:17.018Z,24.04
2018-08-09T00:40:45.228Z,23.99
2018-08-09T00:43:14.040Z,24.00
2018-08-09T00:45:42.516Z,24.03
2018-08-09T00:48:10.984Z,23.99
2018-08-09T00:50:39.424Z,23.95
2018-08-09T00:53:08.572Z,23.90
2018-08-09T00:55:36.754Z,23.79
2018-08-09T00:58:05.265Z,23.83
2018-08-09T01:00:33.923Z,23.92
2018-08-09T01:03:02.151Z,23.91
2018-08-09T01:05:30.628Z,23.92
2018-08-09T01:07:59.169Z,23.94
2018-08-09T01:10:27.412Z,23.98
2018-08-09T01:12:55.641Z,23.97
2018-08-09T01:15:23.816Z,23.99
2018-08-09T01:17:52.121Z,23.97
2018-08-09T01:20:20.295Z,24.04
2018-08-09T01:22:49.329Z,24.05
2018-08-09T01:25:17.535Z,24.02
2018-08-09T01:27:46.040Z,24.00
2018-08-09T01:30:14.556Z,23.99
2018-08-09T01:32:42.898Z,23.96
2018-08-09T01:35:11.094Z,23.93
2018-08-09T01:37:39.328Z,23.90
2018-08-09T01:40:07.786Z,23.93
2018-08-09T01:42:53.535Z,23.96
2018-08-09T01:45:21.738Z,23.90
2018-08-09T01:47:50.506Z,23.79
2018-08-09T01:50:18.714Z,23.75
2018-08-09T01:52:47.212Z,23.73
2018-08-09T01:55:15.476Z,23.73
2018-08-09T01:57:44.339Z,23.70
2018-08-09T02:00:12.883Z,23.68
2018-08-09T02:02:41.140Z,23.74
2018-08-09T02:05:09.984Z,23.64
2018-08-09T02:07:38.224Z,23.66
2018-08-09T02:10:06.494Z,23.67
2018-08-09T02:12:35.317Z,23.67
2018-08-09T02:15:04.135Z,23.56
2018-08-09T02:17:32.596Z,23.44
2018-08-09T02:20:01.199Z,23.44
2018-08-09T02:22:29.747Z,23.47
2018-08-09T02:24:58.260Z,23.43
2018-08-09T02:27:26.453Z,23.35
2018-08-09T02:29:54.655Z,23.32
2018-08-09T02:32:22.860Z,23.24
2018-08-09T02:34:51.606Z,23.24
2018-08-09T02:37:20.052Z,23.26
2018-08-09T02:39:48.459Z,23.22
2018-08-09T02:42:17.251Z,23.20
2018-08-09T02:44:45.957Z,23.13
2018-08-09T02:47:14.465Z,23.05
2018-08-09T02:49:42.772Z,22.96
2018-08-09T02:52:11.296Z,22.91
2018-08-09T02:54:40.107Z,22.82
2018-08-09T02:57:08.604Z,22.74
2018-08-09T02:59:37.067Z,22.76
2018-08-09T03:02:05.323Z,22.70
2018-08-09T03:04:33.535Z,22.68
2018-08-09T03:07:01.708Z,22.65
2018-08-09T03:09:29.960Z,22.58
2018-08-09T03:11:58.508Z,22.55
2018-08-09T03:14:26.960Z,22.63
2018-08-09T03:16:58.094Z,22.57
2018-08-09T03:19:26.307Z,22.67
2018-08-09T03:21:54.869Z,22.63
2018-08-09T03:24:23.437Z,22.51
2018-08-09T03:26:52.070Z,22.46
2018-08-09T03:29:20.577Z,22.37
2018-08-09T03:31:49.007Z,22.37
2018-08-09T03:34:17.546Z,22.38
2018-08-09T03:36:46.054Z,22.37
2018-08-09T03:39:14.265Z,22.31
2018-08-09T03:41:42.436Z,22.25
2018-08-09T03:44:10.980Z,22.26
2018-08-09T03:46:39.165Z,22.18
2018-08-09T03:49:07.636Z,22.17
2018-08-09T03:51:36.185Z,22.10
2018-08-09T03:54:05.211Z,22.06
2018-08-09T03:56:33.393Z,22.01
2018-08-09T03:59:02.246Z,21.98
2018-08-09T04:01:30.453Z,22.02
2018-08-09T04:03:58.683Z,22.04
2018-08-09T04:06:26.891Z,22.06
2018-08-09T04:08:55.485Z,22.03
2018-08-09T04:11:23.972Z,22.00
2018-08-09T04:13:52.576Z,21.95
2018-08-09T04:16:21.090Z,21.92
2018-08-09T04:18:49.620Z,21.90
2018-08-09T04:21:17.861Z,21.85
2018-08-09T04:23:46.157Z,21.82
2018-08-09T04:26:14.378Z,21.90
2018-08-09T04:28:42.885Z,21.97
2018-08-09T04:31:11.161Z,22.14
2018-08-09T04:33:39.440Z,22.14
2018-08-09T04:36:07.852Z,22.12
2018-08-09T04:38:36.718Z,22.10
2018-08-09T04:41:05.293Z,22.20
2018-08-09T04:43:33.857Z,22.26
2018-08-09T04:46:02.342Z,22.35
2018-08-09T04:48:32.434Z,22.44
2018-08-09T04:51:00.620Z,22.55
2018-08-09T04:53:29.234Z,22.57
2018-08-09T04:55:57.471Z,22.53
2018-08-09T04:58:25.720Z,22.67
2018-08-09T05:00:54.470Z,22.64
2018-08-09T05:03:23.057Z,22.55
2018-08-09T05:05:51.534Z,22.45
2018-08-09T05:08:19.989Z,22.46
2018-08-09T05:10:48.543Z,22.37
2018-08-09T05:13:17.504Z,22.39
2018-08-09T05:15:46.239Z,22.41
2018-08-09T05:18:15.168Z,22.41
2018-08-09T05:20:43.488Z,22.51
2018-08-09T05:23:12.036Z,22.53
2018-08-09T05:25:40.263Z,22.64
2018-08-09T05:28:09.387Z,22.69
2018-08-09T05:30:38.187Z,22.82
2018-08-09T05:33:07.184Z,22.93
2018-08-09T05:35:35.745Z,23.04
2018-08-09T05:38:04.770Z,23.07
2018-08-09T05:40:33.641Z,23.18
2018-08-09T05:43:02.057Z,23.18
2018-08-09T05:45:30.843Z,23.42
2018-08-09T05:47:59.323Z,23.33
2018-08-09T05:50:27.825Z,23.41
2018-08-09T05:52:56.163Z,23.55
2018-08-09T05:55:24.455Z,23.72
2018-08-09T05:57:52.693Z,23.64
2018-08-09T06:00:22.068Z,23.56
2018-08-09T06:02:50.748Z,23.59
2018-08-09T06:05:19.264Z,23.63
2018-08-09T06:07:47.502Z,23.54
2018-08-09T06:10:16.133Z,23.63
2018-08-09T06:12:44.384Z,23.88
2018-08-09T06:15:12.748Z,23.73
2018-08-09T06:17:41.224Z,23.44
2018-08-09T06:20:09.527Z,23.51
2018-08-09T06:22:38.109Z,23.84
2018-08-09T06:25:06.971Z,24.06
2018-08-09T06:27:35.176Z,24.28
2018-08-09T06:30:04.345Z,24.55
2018-08-09T06:32:32.621Z,24.74
2018-08-09T06:35:01.083Z,25.02
2018-08-09T06:37:29.313Z,25.06
2018-08-09T06:39:57.531Z,25.06
2018-08-09T06:42:26.210Z,25.39
2018-08-09T06:44:54.668Z,25.28
2018-08-09T06:47:23.256Z,25.33
2018-08-09T06:49:51.859Z,25.36
2018-08-09T06:52:20.054Z,25.57
2018-08-09T06:54:49.356Z,25.82
2018-08-09T06:57:18.176Z,25.97
2018-08-09T06:59:46.650Z,26.20
2018-08-09T07:02:15.657Z,26.35
2018-08-09T07:04:44.692Z,26.56
2018-08-09T07:07:12.992Z,26.68
2018-08-09T07:09:41.237Z,26.72
2018-08-09T07:12:09.428Z,26.91
2018-08-09T07:14:37.608Z,26.77
2018-08-09T07:17:05.816Z,26.81
2018-08-09T07:19:34.043Z,26.95
2018-08-09T07:22:02.865Z,27.13
2018-08-09T07:24:31.147Z,27.32
2018-08-09T07:26:59.700Z,27.42
2018-08-09T07:29:27.977Z,27.49
2018-08-09T07:31:56.182Z,27.13
2018-08-09T07:34:24.420Z,27.18
2018-08-09T07:36:52.929Z,27.07
2018-08-09T07:39:21.165Z,27.13
2018-08-09T07:41:49.382Z,27.10
2018-08-09T07:44:17.951Z,27.19
2018-08-09T07:46:46.516Z,27.59
2018-08-09T07:49:14.720Z,27.54
2018-08-09T07:51:43.270Z,27.54
2018-08-09T07:54:11.467Z,27.68
2018-08-09T07:56:39.861Z,27.94
2018-08-09T07:59:08.362Z,28.15
2018-08-09T08:01:36.915Z,28.54
2018-08-09T08:04:05.221Z,28.86
2018-08-09T08:06:33.716Z,29.09
2018-08-09T08:09:01.957Z,29.07
2018-08-09T08:11:30.198Z,29.28
2018-08-09T08:13:58.413Z,29.30
2018-08-09T08:16:26.621Z,29.35
2018-08-09T08:18:55.167Z,29.60
2018-08-09T08:21:23.501Z,29.81
2018-08-09T08:23:51.784Z,29.62
2018-08-09T08:26:20.095Z,29.83
2018-08-09T08:28:48.470Z,29.71
2018-08-09T08:31:17.354Z,29.80
2018-08-09T08:33:46.186Z,30.36
2018-08-09T08:36:14.873Z,30.03
2018-08-09T08:38:43.127Z,29.87
2018-08-09T08:41:11.327Z,29.78
2018-08-09T08:43:39.800Z,29.64
2018-08-09T08:46:08.015Z,30.17
2018-08-09T08:48:36.764Z,30.47
2018-08-09T08:51:05.207Z,30.36
2018-08-09T08:53:33.454Z,29.99
2018-08-09T08:56:01.761Z,30.01
2018-08-09T08:58:30.213Z,30.10
2018-08-09T09:00:58.578Z,30.61
2018-08-09T09:03:27.476Z,30.66
2018-08-09T09:05:56.232Z,30.83
2018-08-09T09:08:24.916Z,31.34
2018-08-09T09:10:54.355Z,31.42
2018-08-09T09:13:23.280Z,31.45
2018-08-09T09:15:51.525Z,31.64
2018-08-09T09:18:20.327Z,31.73
2018-08-09T09:20:48.531Z,31.95
2018-08-09T09:23:17.039Z,32.03
2018-08-09T09:25:45.551Z,32.12
2018-08-09T09:28:14.313Z,32.39
2018-08-09T09:30:42.483Z,32.09
2018-08-09T09:33:11.126Z,32.37
2018-08-09T09:35:39.577Z,32.59
2018-08-09T09:38:07.796Z,32.50
2018-08-09T09:40:36.749Z,32.80
2018-08-09T09:43:05.231Z,32.89
2018-08-09T09:45:33.453Z,32.81
2018-08-09T09:48:01.949Z,32.57
2018-08-09T09:50:30.195Z,32.95
2018-08-09T09:52:58.410Z,32.77
2018-08-09T09:55:27.047Z,32.46
2018-08-09T09:57:55.499Z,32.07
2018-08-09T10:00:28.629Z,32.07
2018-08-09T10:02:56.801Z,32.35
2018-08-09T10:05:25.421Z,32.64
2018-08-09T10:07:53.628Z,32.48
2018-08-09T10:10:21.837Z,32.86
2018-08-09T10:12:51.421Z,32.67
2018-08-09T10:15:19.788Z,32.90
2018-08-09T10:17:48.268Z,33.02
2018-08-09T10:20:16.485Z,33.41
2018-08-09T10:22:44.793Z,33.55
2018-08-09T10:25:13.129Z,33.58
2018-08-09T10:27:41.327Z,33.40
2018-08-09T10:30:09.615Z,33.75
2018-08-09T10:32:37.836Z,33.38
2018-08-09T10:35:06.031Z,33.82
2018-08-09T10:37:34.820Z,33.73
2018-08-09T10:40:03.472Z,33.63
2018-08-09T10:42:32.028Z,33.60
2018-08-09T10:45:00.530Z,33.32
2018-08-09T10:47:29.622Z,33.70
2018-08-09T10:49:59.396Z,34.04
2018-08-09T10:52:27.648Z,34.08
2018-08-09T10:54:55.904Z,34.66
2018-08-09T10:57:24.333Z,35.32
2018-08-09T10:59:52.917Z,35.14
2018-08-09T11:02:22.232Z,35.57
2018-08-09T11:04:50.448Z,34.99
2018-08-09T11:07:18.718Z,35.02
2018-08-09T11:09:47.263Z,34.68
2018-08-09T11:12:15.740Z,34.55
2018-08-09T11:14:44.308Z,34.66
2018-08-09T11:17:12.537Z,35.50
2018-08-09T11:19:41.105Z,35.93
2018-08-09T11:22:09.597Z,35.58
2018-08-09T11:24:38.940Z,35.00
2018-08-09T11:27:07.440Z,35.85
2018-08-09T11:29:36.017Z,36.03
2018-08-09T11:32:04.240Z,36.47
2018-08-09T11:34:33.488Z,36.41
2018-08-09T11:37:01.689Z,35.80
2018-08-09T11:39:29.932Z,36.12
2018-08-09T11:41:59.314Z,36.76
2018-08-09T11:44:27.892Z,36.14
2018-08-09T11:46:56.817Z,36.16
2018-08-09T11:49:25.087Z,36.78
2018-08-09T11:51:53.523Z,37.64
2018-08-09T11:54:21.953Z,37.10
2018-08-09T11:56:51.071Z,36.86
2018-08-09T11:59:19.260Z,36.60
2018-08-09T12:01:47.756Z,36.32
2018-08-09T12:04:15.869Z,37.20
2018-08-09T12:06:44.771Z,36.87
2018-08-09T12:09:13.069Z,37.83
2018-08-09T12:11:41.349Z,37.25
2018-08-09T12:14:09.573Z,37.68
2018-08-09T12:16:37.838Z,37.55
2018-08-09T12:19:06.671Z,37.39
2018-08-09T12:21:35.115Z,37.27
2018-08-09T12:24:03.836Z,37.63
2018-08-09T12:26:32.685Z,38.35
2018-08-09T12:29:01.761Z,38.14
2018-08-09T12:31:29.971Z,38.29
2018-08-09T12:33:58.574Z,38.23
2018-08-09T12:36:26.887Z,37.47
2018-08-09T12:38:55.163Z,36.90
2018-08-09T12:41:23.547Z,37.20
2018-08-09T12:43:51.939Z,37.96
2018-08-09T12:46:20.121Z,37.30
2018-08-09T12:48:48.648Z,36.82
2018-08-09T12:51:17.467Z,37.35
2018-08-09T12:53:45.905Z,37.51
2018-08-09T12:56:14.098Z,38.21
2018-08-09T12:58:42.589Z,38.29
2018-08-09T13:01:10.889Z,38.31
2018-08-09T13:03:39.353Z,38.20
2018-08-09T13:06:07.567Z,38.40
2018-08-09T13:08:35.806Z,38.87
2018-08-09T13:11:05.023Z,38.41
2018-08-09T13:13:33.793Z,37.41
2018-08-09T13:16:02.127Z,36.87
2018-08-09T13:18:31.504Z,36.87
2018-08-09T13:20:59.703Z,36.81
2018-08-09T13:23:28.240Z,36.51
2018-08-09T13:25:57.619Z,36.17
2018-08-09T13:28:26.205Z,34.47
2018-08-09T13:30:55.225Z,31.20
2018-08-09T13:33:24.441Z,29.60
2018-08-09T13:35:52.790Z,28.20
2018-08-09T13:38:22.880Z,27.54
2018-08-09T13:40:51.736Z,27.15
2018-08-09T13:43:21.912Z,26.59
2018-08-09T13:45:52.094Z,26.49
2018-08-09T13:48:21.407Z,25.76
2018-08-09T13:50:49.729Z,24.81
2018-08-09T13:53:20.439Z,24.38
2018-08-09T13:55:52.061Z,24.02
2018-08-09T13:58:20.621Z,23.73
2018-08-09T14:00:49.777Z,23.69
2018-08-09T14:03:18.160Z,23.62
2018-08-09T14:05:47.091Z,23.76
2018-08-09T14:08:15.342Z,23.83
2018-08-09T14:10:43.563Z,23.92
2018-08-09T14:13:11.756Z,23.99
2018-08-09T14:15:40.113Z,24.07
2018-08-09T14:18:08.341Z,24.23
2018-08-09T14:20:36.590Z,24.48
2018-08-09T14:23:05.895Z,24.63
2018-08-09T14:25:34.116Z,25.07
2018-08-09T14:28:04.328Z,25.67
2018-08-09T14:30:33.090Z,27.23
2018-08-09T14:33:02.205Z,28.25
2018-08-09T14:35:30.427Z,28.33
2018-08-09T14:37:58.725Z,28.24
2018-08-09T14:40:27.240Z,28.21
2018-08-09T14:42:55.643Z,28.28
2018-08-09T14:45:24.141Z,27.70
2018-08-09T14:47:53.152Z,27.39
2018-08-09T14:50:21.707Z,27.13
2018-08-09T14:52:51.635Z,26.90
2018-08-09T14:55:20.207Z,27.12
2018-08-09T14:57:49.617Z,27.30
2018-08-09T15:00:19.225Z,27.59
2018-08-09T15:02:48.021Z,27.80
2018-08-09T15:05:17.043Z,27.83
2018-08-09T15:07:45.477Z,27.52
2018-08-09T15:10:15.057Z,27.23
2018-08-09T15:12:43.981Z,27.34
2018-08-09T15:15:12.762Z,27.30
2018-08-09T15:17:42.709Z,27.05
2018-08-09T15:20:13.376Z,27.03
2018-08-09T15:22:42.274Z,26.84
2018-08-09T15:25:11.296Z,26.87
2018-08-09T15:27:39.937Z,26.95
2018-08-09T15:30:19.070Z,26.97
2018-08-09T15:32:47.752Z,26.99
2018-08-09T15:35:18.217Z,26.99
2018-08-09T15:37:46.919Z,27.16
2018-08-09T15:40:15.437Z,27.12
2018-08-09T15:42:43.729Z,27.37
2018-08-09T15:45:15.119Z,27.09
2018-08-09T15:47:43.516Z,27.38
2018-08-09T15:50:14.969Z,27.51
2018-08-09T15:52:43.208Z,27.72
2018-08-09T15:55:12.117Z,28.33
2018-08-09T15:57:40.693Z,30.42
2018-08-09T16:00:14.230Z,30.83
2018-08-09T16:02:43.226Z,31.12
2018-08-09T16:05:11.434Z,31.86
2018-08-09T16:07:39.706Z,34.51
2018-08-09T16:10:12.049Z,35.57
2018-08-09T16:12:40.967Z,38.28
2018-08-09T16:15:12.840Z,35.69
2018-08-09T16:17:42.021Z,33.40
2018-08-09T16:20:11.190Z,32.62
2018-08-09T16:22:39.722Z,32.15
2018-08-09T16:25:14.448Z,31.75
2018-08-09T16:27:42.783Z,31.27
2018-08-09T16:30:16.104Z,30.87
2018-08-09T16:32:44.495Z,30.60
2018-08-09T16:35:13.362Z,31.02
2018-08-09T16:37:42.343Z,30.58
2018-08-09T16:40:19.943Z,30.19
2018-08-09T16:42:48.273Z,29.82
2018-08-09T16:45:17.984Z,29.46
2018-08-09T16:47:46.815Z,28.96
2018-08-09T16:50:18.561Z,29.04
2018-08-09T16:52:47.744Z,28.95
2018-08-09T16:55:17.621Z,28.57
2018-08-09T16:57:45.925Z,28.19
2018-08-09T17:00:23.443Z,27.93
2018-08-09T17:02:53.592Z,27.84
2018-08-09T17:05:24.613Z,27.67
2018-08-09T17:07:53.295Z,27.50
2018-08-09T17:10:23.342Z,27.68
2018-08-09T17:12:52.018Z,27.30
2018-08-09T17:15:26.011Z,27.27
2018-08-09T17:17:55.522Z,27.12
2018-08-09T17:20:33.705Z,27.02
2018-08-09T17:23:04.514Z,27.01
2018-08-09T17:25:32.866Z,26.82
2018-08-09T17:28:01.680Z,26.78
2018-08-09T17:30:30.795Z,26.63
2018-08-09T17:33:00.193Z,26.41
2018-08-09T17:35:28.831Z,26.41
2018-08-09T17:37:57.054Z,26.10
2018-08-09T17:40:28.360Z,25.97
2018-08-09T17:42:58.360Z,25.76
2018-08-09T17:45:28.991Z,25.68
2018-08-09T17:47:57.666Z,25.53
2018-08-09T17:50:25.950Z,25.31
2018-08-09T17:52:56.700Z,24.83
2018-08-09T17:55:25.033Z,24.45
2018-08-09T17:57:53.749Z,24.43
2018-08-09T18:00:27.168Z,24.39
2018-08-09T18:02:55.518Z,24.32
2018-08-09T18:05:23.836Z,24.33
2018-08-09T18:07:52.756Z,24.15
2018-08-09T18:10:23.834Z,24.22
2018-08-09T18:12:52.642Z,24.37
2018-08-09T18:15:21.854Z,24.30
2018-08-09T18:17:50.408Z,24.22
2018-08-09T18:20:21.341Z,24.22
2018-08-09T18:22:49.593Z,24.12
2018-08-09T18:25:18.068Z,24.00
2018-08-09T18:27:46.422Z,23.99
2018-08-09T18:30:16.875Z,23.80
2018-08-09T18:32:45.441Z,23.78
2018-08-09T18:35:15.535Z,23.66
2018-08-09T18:37:45.378Z,23.61
2018-08-09T18:40:20.141Z,23.61
2018-08-09T18:42:49.167Z,23.76
2018-08-09T18:45:17.796Z,23.61
2018-08-09T18:47:46.337Z,23.62
2018-08-09T18:50:18.549Z,23.79
2018-08-09T18:52:46.828Z,23.75
2018-08-09T18:55:16.824Z,23.69
2018-08-09T18:57:45.479Z,23.72
2018-08-09T19:00:25.833Z,23.57
2018-08-09T19:02:54.388Z,23.56
2018-08-09T19:05:23.629Z,23.56
2018-08-09T19:07:52.349Z,23.60
2018-08-09T19:10:29.043Z,23.60
2018-08-09T19:12:57.722Z,23.48
2018-08-09T19:15:27.389Z,23.51
2018-08-09T19:17:56.952Z,23.26
2018-08-09T19:20:32.198Z,23.28
2018-08-09T19:23:02.778Z,23.19
2018-08-09T19:25:31.090Z,23.23
2018-08-09T19:27:59.774Z,23.01
2018-08-09T19:30:30.663Z,23.00
2018-08-09T19:32:59.485Z,22.91
2018-08-09T19:35:28.621Z,22.90
2018-08-09T19:37:56.973Z,22.88
2018-08-09T19:40:27.928Z,22.88
2018-08-09T19:42:57.300Z,22.95
2018-08-09T19:45:26.798Z,23.04
2018-08-09T19:47:55.747Z,22.97
2018-08-09T19:50:25.240Z,22.89
2018-08-09T19:52:54.017Z,22.97
2018-08-09T19:55:24.004Z,22.91
2018-08-09T19:57:52.717Z,22.95
2018-08-09T20:00:26.393Z,23.19
2018-08-09T20:02:55.133Z,23.12
2018-08-09T20:05:24.132Z,23.02
2018-08-09T20:07:52.446Z,23.03
2018-08-09T20:10:21.365Z,23.07
2018-08-09T20:12:49.979Z,23.13
2018-08-09T20:15:21.046Z,23.13
2018-08-09T20:17:50.074Z,23.05
2018-08-09T20:20:20.069Z,23.05
2018-08-09T20:22:49.093Z,23.00
2018-08-09T20:25:17.367Z,23.04
2018-08-09T20:27:46.510Z,23.00
2018-08-09T20:30:17.745Z,22.91
2018-08-09T20:32:46.874Z,22.88
2018-08-09T20:35:20.105Z,23.07
2018-08-09T20:37:49.060Z,23.03
2018-08-09T20:40:18.075Z,23.12
2018-08-09T20:42:47.311Z,23.11
2018-08-09T20:45:17.881Z,23.09
2018-08-09T20:47:46.515Z,23.10
2018-08-09T20:50:17.747Z,23.09
2018-08-09T20:52:46.883Z,23.04
2018-08-09T20:55:15.680Z,22.95
2018-08-09T20:57:45.867Z,23.05
2018-08-09T21:00:20.570Z,22.95
2018-08-09T21:02:50.090Z,22.88
2018-08-09T21:05:27.889Z,22.89
2018-08-09T21:07:57.202Z,22.87
2018-08-09T21:10:27.507Z,22.88
2018-08-09T21:12:56.149Z,22.92
2018-08-09T21:15:25.072Z,22.93
2018-08-09T21:17:53.271Z,22.95
2018-08-09T21:20:21.476Z,22.86
2018-08-09T21:22:50.215Z,22.83
2018-08-09T21:25:20.411Z,22.90
2018-08-09T21:27:49.024Z,22.85
2018-08-09T21:30:19.444Z,22.72
2018-08-09T21:32:48.138Z,22.81
2018-08-09T21:35:16.381Z,22.86
2018-08-09T21:37:44.877Z,22.82
2018-08-09T21:40:14.129Z,22.81
2018-08-09T21:42:42.612Z,22.83
2018-08-09T21:45:13.998Z,22.74
2018-08-09T21:47:42.805Z,22.80
2018-08-09T21:50:14.830Z,22.80
2018-08-09T21:52:43.116Z,22.77
2018-08-09T21:55:12.536Z,22.75
2018-08-09T21:57:41.559Z,22.72
2018-08-09T22:00:52.548Z,22.68
2018-08-09T22:03:23.613Z,22.68
2018-08-09T22:05:57.644Z,22.66
2018-08-09T22:08:31.774Z,22.74
2018-08-09T22:11:05.748Z,22.66
2018-08-09T22:13:40.416Z,22.59
2018-08-09T22:16:14.219Z,22.42
2018-08-09T22:18:48.024Z,22.42
2018-08-09T22:21:21.804Z,22.48
2018-08-09T22:23:51.085Z,22.50
2018-08-09T22:26:20.309Z,22.54
2018-08-09T22:28:48.558Z,22.43
2018-08-09T22:31:16.918Z,22.37
2018-08-09T22:33:46.028Z,22.38
2018-08-09T22:36:14.284Z,22.29
2018-08-09T22:38:42.574Z,22.21
2018-08-09T22:41:11.054Z,22.21
2018-08-09T22:43:39.678Z,22.14
2018-08-09T22:46:08.541Z,22.19
2018-08-09T22:48:36.852Z,22.05
2018-08-09T22:51:06.351Z,22.21
2018-08-09T22:53:35.997Z,22.03
2018-08-09T22:56:04.426Z,22.07
2018-08-09T22:58:32.796Z,22.27
2018-08-09T23:01:01.030Z,22.28
2018-08-09T23:03:30.123Z,22.24
2018-08-09T23:05:58.385Z,22.31
2018-08-09T23:08:26.785Z,22.24
2018-08-09T23:10:54.974Z,22.26
2018-08-09T23:13:27.955Z,22.35
2018-08-09T23:15:56.461Z,22.42
2018-08-09T23:18:24.840Z,22.37
2018-08-09T23:20:53.653Z,22.33
2018-08-09T23:23:21.966Z,22.24
2018-08-09T23:25:50.856Z,22.14
2018-08-09T23:28:19.084Z,22.00
2018-08-09T23:30:47.665Z,21.91
2018-08-09T23:33:20.356Z,21.71
2018-08-09T23:35:49.038Z,21.66
2018-08-09T23:38:17.345Z,21.56
2018-08-09T23:40:46.177Z,21.32
2018-08-09T23:43:14.660Z,21.29
2018-08-09T23:45:43.375Z,21.23
2018-08-09T23:48:12.259Z,21.06
2018-08-09T23:50:41.538Z,20.94
2018-08-09T23:53:09.801Z,20.90
2018-08-09T23:55:38.158Z,20.82
2018-08-09T23:58:06.432Z,20.80
